Latest Weather Observations for Derby

IDW60801

Issued at 9:32 am WST Friday 4 September 2015 (issued every 30 minutes, with the page automatically refreshed every 10 minutes)

About weather observations | Map of weather stations | Latest weather observations for WA | Other Formats
Station Details ID: 003032 Name: DERBY AERO Lat: -17.37 Lon: 123.66 Height: 6.2 m
Data from the previous 72 hours. | See also: Recent months at Derby
Date/Time
WST
Temp
°C
App
Temp
°C
Dew
Point
Rel
Hum
%
Delta-T
°C
Wind Press
QNH
hPa
Press
MSL
hPa
Rain
since 9 am
mm
Dir
 
Spd
km/h
Gust
km/h
Spd
kts
Gust
kts
04/09:30am 31.3 26.3 1.6 15 14.7 SSE 17 24 9 13 1017.3 1017.3 0.0
04/09:00am 29.6 24.3 2.0 17 13.6 SSE 19 24 10 13 1017.4 1017.4 0.0
04/08:30am 27.8 23.4 4.8 23 11.8 S 17 22 9 12 1017.5 1017.5 0.0
04/08:00am 24.7 20.9 7.4 33 9.1 SSE 17 22 9 12 1017.5 1017.5 0.0
04/07:30am 22.2 19.1 9.0 43 7.0 S 15 19 8 10 1017.3 1017.3 0.0
04/07:00am 19.9 17.9 10.3 54 5.2 S 11 13 6 7 1017.2 1017.2 0.0
04/06:30am 18.1 16.7 11.0 63 3.8 S 9 13 5 7 1016.9 1016.9 0.0
04/06:00am 17.5 16.2 11.1 66 3.5 S 9 11 5 6 1016.8 1016.8 0.0
04/05:30am 17.8 16.6 11.6 67 3.4 S 9 11 5 6 1016.6 1016.6 0.0
04/05:00am 17.8 16.4 12.3 70 3.0 SSW 11 13 6 7 1016.3 1016.3 0.0
04/04:30am 18.1 16.4 12.5 70 3.1 S 13 15 7 8 1016.0 1016.0 0.0
04/04:00am 18.8 17.5 13.6 72 3.0 S 13 15 7 8 1015.6 1015.6 0.0
04/03:30am 19.3 18.2 14.3 73 2.9 S 13 15 7 8 1015.5 1015.5 0.0
04/03:00am 20.3 18.8 15.3 73 3.0 S 17 20 9 11 1015.6 1015.6 0.0
04/02:30am 20.2 19.0 15.0 72 3.1 SSE 15 20 8 11 1015.6 1015.6 0.0
04/02:00am 20.6 19.6 14.5 68 3.6 SSE 13 17 7 9 1015.5 1015.5 0.0
04/01:30am 21.3 20.7 15.6 70 3.4 S 13 17 7 9 1015.6 1015.6 0.0
04/01:00am 21.4 20.8 16.6 74 2.9 S 15 19 8 10 1015.8 1015.8 0.0
04/12:30am 21.6 21.7 16.6 73 3.0 S 11 15 6 8 1016.1 1016.1 0.0
04/12:00am 21.6 21.0 15.7 69 3.5 S 13 15 7 8 1016.3 1016.3 0.0
 
Date/Time
WST
Temp
°C
App
Temp
°C
Dew
Point
Rel
Hum
%
Delta-T
°C
Wind Press
QNH
hPa
Press
MSL
hPa
Rain
since 9 am
mm
Dir
 
Spd
km/h
Gust
km/h
Spd
kts
Gust
kts
03/11:30pm 22.3 22.0 15.4 65 4.1 SSW 11 15 6 8 1016.7 1016.7 0.0
03/11:00pm 22.7 22.2 15.0 61 4.6 SW 11 15 6 8 1017.0 1017.0 0.0
03/10:30pm 23.0 21.2 13.2 54 5.7 SSW 15 17 8 9 1017.1 1017.1 0.0
03/10:00pm 23.3 21.3 11.4 47 6.7 SW 13 15 7 8 1017.2 1017.2 0.0
03/09:30pm 24.4 22.6 11.0 43 7.5 S 11 13 6 7 1017.2 1017.2 0.0
03/09:00pm 24.6 23.2 10.8 42 7.7 SSW 9 9 5 5 1017.0 1017.0 0.0
03/08:30pm 24.7 23.6 12.0 45 7.2 SSW 9 15 5 8 1016.9 1016.9 0.0
03/08:00pm 24.7 23.8 14.8 54 5.9 SW 13 19 7 10 1016.7 1016.7 0.0
03/07:30pm 25.3 25.2 15.0 53 6.2 N 9 13 5 7 1016.0 1016.0 0.0
03/07:00pm 25.2 24.8 15.2 54 6.0 NNW 11 13 6 7 1015.6 1015.6 0.0
03/06:30pm 25.5 25.1 15.2 53 6.2 NW 11 13 6 7 1015.3 1015.3 0.0
03/06:00pm 26.9 25.8 11.8 39 8.7 NW 9 13 5 7 1014.9 1014.9 0.0
03/05:30pm 29.3 27.5 10.9 32 10.5 NW 11 13 6 7 1014.6 1014.6 0.0
03/05:00pm 31.3 29.4 11.7 30 11.4 NW 13 15 7 8 1014.3 1014.3 0.0
03/04:30pm 32.0 29.2 11.2 28 12.1 NW 17 20 9 11 1014.3 1014.3 0.0
03/04:00pm 32.3 29.4 10.9 27 12.4 NNW 17 20 9 11 1014.2 1014.2 0.0
03/03:30pm 33.2 30.5 10.5 25 13.1 NW 15 20 8 11 1014.1 1014.1 0.0
03/03:00pm 33.5 30.5 7.5 20 14.4 NW 13 22 7 12 1013.9 1013.9 0.0
03/02:30pm 33.5 30.3 6.7 19 14.6 WNW 13 19 7 10 1014.1 1014.1 0.0
03/02:00pm 33.5 30.1 5.9 18 14.9 NW 13 20 7 11 1014.3 1014.3 0.0
03/01:30pm 33.4 29.8 5.0 17 15.1 WNW 13 19 7 10 1014.5 1014.5 0.0
03/01:00pm 33.0 31.0 11.5 27 12.6 NW 13 20 7 11 1014.9 1014.9 0.0
03/12:30pm 32.5 31.3 11.6 28 12.3 WNW 9 19 5 10 1015.3 1015.3 0.0
03/12:00pm 31.2 30.1 13.0 33 10.8 WNW 11 20 6 11 1015.6 1015.6 0.0
03/11:30am 31.6 30.6 13.4 33 10.9 NW 11 17 6 9 1016.0 1016.0 0.0
03/11:00am 30.5 29.4 11.9 31 10.8 NW 9 15 5 8 1016.6 1016.6 0.0
03/10:30am 29.6 28.7 12.5 35 10.0 W 9 13 5 7 1017.1 1017.1 0.0
03/10:00am 28.8 28.5 12.7 37 9.4 NW 6 11 3 6 1017.5 1017.5 0.0
03/09:30am 26.7 26.1 13.4 43 7.8 SW 9 15 5 8 1017.9 1017.9 0.0
03/09:00am 25.2 23.9 14.9 52 6.2 SSE 15 20 8 11 1018.0 1018.0 0.0
03/08:30am 24.1 23.2 15.9 60 5.0 SSW 15 20 8 11 1017.8 1017.8 0.0
03/08:00am 22.4 22.7 17.1 72 3.2 S 11 15 6 8 1017.8 1017.8 0.0
03/07:30am 20.5 20.9 16.3 77 2.5 SSE 9 13 5 7 1017.9 1017.9 0.0
03/07:00am 19.1 19.6 15.6 80 2.1 SSE 7 11 4 6 1017.7 1017.7 0.0
03/06:30am 17.6 17.9 14.5 82 1.8 SSE 6 9 3 5 1017.4 1017.4 0.0
03/06:00am 16.3 16.1 13.6 84 1.5 SE 7 9 4 5 1017.2 1017.2 0.0
03/05:30am 15.7 14.8 12.6 82 1.7 S 9 11 5 6 1016.6 1016.6 0.0
03/05:00am 16.6 16.2 14.2 86 1.4 SSE 9 11 5 6 1016.3 1016.3 0.0
03/04:30am 16.9 16.2 14.4 85 1.4 SSE 11 13 6 7 1016.1 1016.1 0.0
03/04:00am 17.2 17.0 14.7 85 1.4 SSE 9 11 5 6 1015.7 1015.7 0.0
03/03:30am 17.2 17.4 14.7 85 1.4 SE 7 9 4 5 1015.6 1015.6 0.0
03/03:00am 17.6 17.6 14.3 81 1.9 SSE 7 9 4 5 1015.7 1015.7 0.0
03/02:30am 17.7 17.7 15.1 85 1.5 S 9 9 5 5 1015.9 1015.9 0.0
03/02:00am 17.0 18.0 13.3 79 2.1 CALM 0 0 0 0 1015.9 1015.9 0.0
03/01:30am 17.8 19.0 13.9 78 2.2 CALM 0 0 0 0 1016.1 1016.1 0.0
03/01:00am 18.6 20.3 15.1 80 2.0 CALM 0 2 0 1 1016.0 1016.0 0.0
03/12:30am 18.9 19.2 14.4 75 2.6 SSW 6 7 3 4 1016.3 1016.3 0.0
03/12:00am 20.6 21.2 15.8 74 2.9 WSW 7 9 4 5 1016.5 1016.5 0.0
 
Date/Time
WST
Temp
°C
App
Temp
°C
Dew
Point
Rel
Hum
%
Delta-T
°C
Wind Press
QNH
hPa
Press
MSL
hPa
Rain
since 9 am
mm
Dir
 
Spd
km/h
Gust
km/h
Spd
kts
Gust
kts
02/11:30pm 21.0 21.1 15.5 71 3.3 SW 9 11 5 6 1016.7 1016.7 0.0
02/11:00pm 21.4 21.8 15.3 68 3.6 SSW 7 9 4 5 1016.8 1016.8 0.0
02/10:30pm 21.6 22.2 15.4 68 3.7 W 6 7 3 4 1016.8 1016.8 0.0
02/10:00pm 22.2 22.0 15.8 67 3.8 W 11 13 6 7 1016.6 1016.6 0.0
02/09:30pm 23.3 23.3 17.3 69 3.7 W 13 15 7 8 1016.5 1016.5 0.0
02/09:00pm 23.8 24.1 18.7 73 3.2 WNW 15 20 8 11 1016.3 1016.3 0.0
02/08:30pm 23.5 24.8 19.4 78 2.6 NNW 11 13 6 7 1016.3 1016.3 0.0
02/08:00pm 23.7 24.5 19.0 75 3.0 NNW 13 15 7 8 1016.1 1016.1 0.0
02/07:30pm 24.2 24.7 18.4 70 3.7 NNW 13 17 7 9 1015.7 1015.7 0.0
02/07:00pm 24.3 25.7 18.7 71 3.5 NNW 9 11 5 6 1015.2 1015.2 0.0
02/06:30pm 24.6 24.7 18.3 68 4.0 NW 15 19 8 10 1014.8 1014.8 0.0
02/06:00pm 25.0 24.8 18.4 66 4.2 NNW 17 20 9 11 1014.4 1014.4 0.0
02/05:30pm 25.5 24.7 17.2 60 5.2 NNW 17 19 9 10 1014.3 1014.3 0.0
02/05:00pm 27.2 24.1 13.5 42 8.1 NW 22 26 12 14 1014.2 1014.2 0.0
02/04:30pm 29.2 25.7 8.8 28 11.3 N 17 20 9 11 1013.8 1013.8 0.0
02/04:00pm 29.8 25.9 7.1 24 12.2 NNW 17 22 9 12 1013.7 1013.7 0.0
02/03:30pm 30.2 25.1 4.0 19 13.4 NNW 20 30 11 16 1013.5 1013.5 0.0
02/03:00pm 30.3 25.5 4.9 20 13.2 NNW 19 28 10 15 1013.5 1013.5 0.0
02/02:30pm 29.9 25.9 10.5 30 11.0 NW 22 28 12 15 1013.6 1013.6 0.0
02/02:00pm 30.4 27.0 10.4 29 11.4 NW 19 28 10 15 1013.7 1013.7 0.0
02/01:30pm 29.8 26.9 10.9 31 10.8 NW 17 24 9 13 1014.1 1014.1 0.0
02/01:00pm 29.6 27.0 12.1 34 10.2 WNW 17 22 9 12 1014.5 1014.5 0.0
02/12:30pm 30.1 27.7 12.5 34 10.4 NW 17 24 9 13 1014.7 1014.7 0.0
02/12:00pm 29.5 27.4 9.6 29 11.1 S 11 20 6 11 1015.0 1015.0 0.0
02/11:30am 29.1 28.0 10.7 32 10.5 WSW 7 11 4 6 1015.7 1015.7 0.0
02/11:00am 28.8 27.2 11.4 34 10.0 SSE 11 15 6 8 1016.2 1016.2 0.0
02/10:30am 27.8 26.9 13.7 42 8.4 SW 11 17 6 9 1016.7 1016.7 0.0
02/10:00am 26.9 26.5 15.3 49 7.0 S 11 19 6 10 1017.0 1017.0 0.0
02/09:30am 25.5 25.1 16.1 56 5.7 S 13 19 7 10 1017.3 1017.3 0.0
02/09:00am 24.5 23.5 16.5 61 4.9 SSE 17 22 9 12 1017.3 1017.3 0.0
02/08:30am 23.7 23.3 16.2 63 4.6 S 13 19 7 10 1017.1 1017.1 0.0
02/08:00am 22.3 21.9 16.1 68 3.7 SE 13 17 7 9 1017.0 1017.0 0.0
02/07:30am 21.1 20.7 16.1 73 3.0 ESE 13 17 7 9 1016.8 1016.8 0.0
02/07:00am 19.6 19.4 14.8 74 2.8 ESE 9 13 5 7 1016.5 1016.5 0.0
02/06:30am 17.2 16.7 13.9 81 1.9 E 9 11 5 6 1016.4 1016.4 0.0
02/06:00am 15.2 14.4 12.9 86 1.3 ESE 9 9 5 5 1015.9 1015.9 0.0
02/05:30am 15.0 13.8 11.6 80 1.8 ESE 9 9 5 5 1015.5 1015.5 0.0
02/05:00am 14.4 13.2 11.6 83 1.5 E 9 9 5 5 1015.2 1015.2 0.0
02/04:30am 15.8 16.7 12.9 83 1.6 CALM 0 0 0 0 1014.9 1014.9 0.0
02/04:00am 16.0 16.1 12.6 80 1.9 ESE 4 6 2 3 1014.7 1014.7 0.0
02/03:30am 15.5 15.0 12.1 80 1.9 SSE 6 6 3 3 1014.9 1014.9 0.0
02/03:00am 16.8 17.3 11.7 72 2.8 CALM 0 0 0 0 1015.0 1015.0 0.0
02/02:30am 16.7 17.2 11.6 72 2.8 CALM 0 0 0 0 1014.9 1014.9 0.0
02/02:00am 17.4 18.2 12.5 73 2.7 CALM 0 0 0 0 1014.9 1014.9 0.0
02/01:30am 17.6 18.6 13.1 75 2.5 CALM 0 0 0 0 1014.8 1014.8 0.0
02/01:00am 17.3 18.0 12.2 72 2.8 CALM 0 0 0 0 1014.9 1014.9 0.0
02/12:30am 17.7 18.3 11.9 69 3.2 CALM 0 0 0 0 1015.1 1015.1 0.0
02/12:00am 19.1 19.9 12.4 65 3.7 CALM 0 0 0 0 1015.3 1015.3 0.0
 
Date/Time
WST
Temp
°C
App
Temp
°C
Dew
Point
Rel
Hum
%
Delta-T
°C
Wind Press
QNH
hPa
Press
MSL
hPa
Rain
since 9 am
mm
Dir
 
Spd
km/h
Gust
km/h
Spd
kts
Gust
kts
01/11:30pm 19.0 19.6 12.0 64 3.9 CALM 0 4 0 2 1015.6 1015.6 0.0
01/11:00pm 20.5 20.7 13.0 62 4.3 SW 4 6 2 3 1015.6 1015.6 0.0
01/10:30pm 20.6 19.2 12.3 59 4.7 WSW 11 15 6 8 1015.4 1015.4 0.0
01/10:00pm 20.6 19.2 12.1 58 4.8 WSW 11 13 6 7 1015.3 1015.3 0.0
01/09:30pm 21.6 20.1 13.0 58 4.9 W 13 15 7 8 1015.1 1015.1 0.0
01/09:00pm 22.6 22.0 13.4 56 5.3 W 9 11 5 6 1014.9 1014.9 0.0
01/08:30pm 22.8 21.9 13.8 57 5.2 WNW 11 11 6 6 1014.6 1014.6 0.0
01/08:00pm 24.3 23.8 15.8 59 5.1 WNW 13 15 7 8 1014.1 1014.1 0.0
01/07:30pm 25.1 24.6 16.8 60 5.1 NW 15 19 8 10 1013.6 1013.6 0.0
01/07:00pm 26.1 25.3 17.2 58 5.5 NNW 17 20 9 11 1013.1 1013.1 0.0
01/06:30pm 25.7 25.2 17.9 62 4.9 N 17 24 9 13 1012.6 1012.6 0.0
01/06:00pm 26.0 24.8 17.4 59 5.4 N 20 28 11 15 1012.2 1012.2 0.0
01/05:30pm 26.7 24.6 16.3 53 6.4 N 22 30 12 16 1011.9 1011.9 0.0
01/05:00pm 27.2 23.9 17.1 54 6.3 N 30 35 16 19 1011.8 1011.8 0.0
01/04:30pm 27.7 23.8 16.9 51 6.7 NNW 33 39 18 21 1011.7 1011.7 0.0
01/04:00pm 28.5 24.2 14.3 41 8.5 NNW 30 37 16 20 1011.5 1011.5 0.0
01/03:30pm 29.5 25.0 13.7 38 9.5 NNW 30 35 16 19 1011.5 1011.5 0.0
01/03:00pm 31.1 27.5 12.9 32 10.8 NNW 24 30 13 16 1011.4 1011.4 0.0
01/02:30pm 31.1 27.8 11.5 30 11.4 NW 20 30 11 16 1011.5 1011.5 0.0
01/02:00pm 32.0 28.6 10.7 27 12.3 NW 19 26 10 14 1011.6 1011.6 0.0
01/01:30pm 31.8 29.0 9.9 26 12.5 NW 15 24 8 13 1011.8 1011.8 0.0
01/01:00pm 31.8 29.2 9.3 25 12.7 WNW 13 24 7 13 1012.3 1012.3 0.0
01/12:30pm 31.8 30.4 11.0 28 12.0 NNW 9 17 5 9 1012.7 1012.7 0.0
01/12:00pm 30.3 27.8 9.8 28 11.6 WNW 13 19 7 10 1013.2 1013.2 0.0
01/11:30am 29.7 28.4 11.2 31 10.6 WNW 9 17 5 9 1013.8 1013.8 0.0
01/11:00am 29.8 28.0 10.9 31 10.8 WSW 11 19 6 10 1014.4 1014.4 0.0
01/10:30am 29.2 26.5 11.7 34 10.1 WSW 17 26 9 14 1014.9 1014.9 0.0
01/10:00am 27.6 26.7 14.9 45 7.7 S 13 20 7 11 1015.3 1015.3 0.0

Other Formats:

Comma delimited format used in spreadsheet applications
http://www.bom.gov.au/fwo/IDW60801/IDW60801.95205.axf

JavaScript Object Notation format (JSON) in row-major order
http://www.bom.gov.au/fwo/IDW60801/IDW60801.95205.json